createdAt,value
2018-08-27T00:01:34.954Z,16.00
2018-08-27T00:04:13.665Z,16.00
2018-08-27T00:06:55.973Z,16.00
2018-08-27T00:09:32.093Z,16.00
2018-08-27T00:12:11.193Z,15.90
2018-08-27T00:14:59.195Z,15.90
2018-08-27T00:17:30.522Z,15.90
2018-08-27T00:20:15.045Z,15.90
2018-08-27T00:22:53.193Z,15.80
2018-08-27T00:25:31.073Z,15.80
2018-08-27T00:28:12.447Z,15.80
2018-08-27T00:30:55.350Z,15.70
2018-08-27T00:33:32.383Z,15.70
2018-08-27T00:36:12.470Z,15.60
2018-08-27T00:38:57.657Z,15.60
2018-08-27T00:41:27.549Z,15.60
2018-08-27T00:44:07.427Z,15.60
2018-08-27T00:46:35.747Z,15.60
2018-08-27T00:49:09.777Z,15.60
2018-08-27T00:51:50.675Z,15.50
2018-08-27T00:54:32.949Z,15.50
2018-08-27T00:57:11.912Z,15.40
2018-08-27T00:59:50.667Z,15.40
2018-08-27T01:02:29.422Z,15.30
2018-08-27T01:05:10.881Z,15.30
2018-08-27T01:07:55.196Z,15.20
2018-08-27T01:10:28.913Z,15.20
2018-08-27T01:13:11.012Z,15.20
2018-08-27T01:15:50.682Z,15.20
2018-08-27T01:18:30.402Z,15.20
2018-08-27T01:21:09.534Z,15.20
2018-08-27T01:23:45.330Z,15.20
2018-08-27T01:26:13.594Z,15.20
2018-08-27T01:29:07.858Z,15.20
2018-08-27T01:31:36.437Z,15.20
2018-08-27T01:34:21.006Z,15.20
2018-08-27T01:37:06.807Z,15.20
2018-08-27T01:39:35.136Z,15.20
2018-08-27T01:42:09.775Z,15.20
2018-08-27T01:44:47.760Z,15.20
2018-08-27T01:47:29.316Z,15.20
2018-08-27T01:50:12.021Z,15.20
2018-08-27T01:52:57.058Z,15.20
2018-08-27T01:55:28.589Z,15.20
2018-08-27T01:58:08.996Z,15.30
2018-08-27T02:00:43.849Z,15.20
2018-08-27T02:12:09.553Z,15.30
2018-08-27T02:14:44.870Z,15.30
2018-08-27T02:17:31.356Z,15.30
2018-08-27T02:20:12.787Z,15.30
2018-08-27T02:22:55.872Z,15.30
2018-08-27T02:25:29.417Z,15.30
2018-08-27T02:28:25.748Z,15.40
2018-08-27T02:31:09.157Z,15.40
2018-08-27T02:33:41.430Z,15.40
2018-08-27T02:36:25.796Z,15.40
2018-08-27T02:39:12.643Z,15.40
2018-08-27T02:41:54.562Z,15.30
2018-08-27T02:44:30.633Z,15.30
2018-08-27T02:47:14.002Z,15.30
2018-08-27T02:49:57.312Z,15.30
2018-08-27T02:52:30.913Z,15.30
2018-08-27T02:55:17.065Z,15.20
2018-08-27T02:57:55.494Z,15.20
2018-08-27T03:00:29.716Z,15.20
2018-08-27T03:03:11.720Z,15.20
2018-08-27T03:05:58.173Z,15.20
2018-08-27T03:08:31.373Z,15.20
2018-08-27T03:11:16.825Z,15.10
2018-08-27T03:13:56.877Z,15.10
2018-08-27T03:16:29.147Z,15.10
2018-08-27T03:19:11.973Z,15.10
2018-08-27T03:21:57.948Z,15.00
2018-08-27T03:24:33.076Z,15.00
2018-08-27T03:27:11.793Z,15.00
2018-08-27T03:29:52.860Z,15.00
2018-08-27T03:32:33.730Z,14.90
2018-08-27T03:35:13.750Z,14.90
2018-08-27T03:37:59.187Z,14.90
2018-08-27T03:40:34.051Z,14.90
2018-08-27T03:43:12.899Z,14.90
2018-08-27T03:45:54.125Z,14.90
2018-08-27T03:48:32.753Z,14.90
2018-08-27T03:51:13.194Z,14.90
2018-08-27T03:56:32.275Z,14.90
2018-08-27T03:59:12.925Z,14.80
2018-08-27T04:02:02.538Z,14.70
2018-08-27T04:04:32.240Z,14.60
2018-08-27T04:07:13.706Z,14.50
2018-08-27T04:09:59.481Z,14.50
2018-08-27T04:12:31.935Z,14.40
2018-08-27T04:15:14.541Z,14.30
2018-08-27T04:17:56.610Z,14.20
2018-08-27T04:23:12.509Z,14.10
2018-08-27T04:25:55.879Z,14.00
2018-08-27T04:28:30.785Z,13.90
2018-08-27T04:31:11.965Z,13.90
2018-08-27T04:33:42.779Z,13.90
2018-08-27T04:36:25.282Z,13.80
2018-08-27T04:39:12.224Z,13.70
2018-08-27T04:41:53.333Z,13.70
2018-08-27T04:44:30.527Z,13.60
2018-08-27T04:47:15.689Z,13.60
2018-08-27T04:49:54.895Z,13.60
2018-08-27T04:52:31.118Z,13.60
2018-08-27T04:55:14.073Z,13.60
2018-08-27T04:57:57.795Z,13.60
2018-08-27T05:00:38.872Z,13.50
2018-08-27T05:03:17.629Z,13.50
2018-08-27T05:05:58.131Z,13.40
2018-08-27T05:08:32.440Z,13.50
2018-08-27T05:11:11.309Z,13.50
2018-08-27T05:13:54.096Z,13.40
2018-08-27T05:16:28.555Z,13.50
2018-08-27T05:19:09.493Z,13.50
2018-08-27T05:21:44.303Z,13.50
2018-08-27T05:24:32.240Z,13.50
2018-08-27T05:27:11.946Z,13.50
2018-08-27T05:32:31.629Z,13.60
2018-08-27T05:35:12.670Z,13.70
2018-08-27T05:37:51.745Z,13.70
2018-08-27T05:40:29.534Z,13.80
2018-08-27T05:43:11.736Z,13.80
2018-08-27T05:45:55.107Z,13.90
2018-08-27T05:48:31.317Z,13.90
2018-08-27T05:51:10.089Z,13.90
2018-08-27T05:53:47.989Z,13.90
2018-08-27T05:56:35.162Z,13.80
2018-08-27T05:59:14.091Z,13.80
2018-08-27T06:01:53.130Z,13.80
2018-08-27T06:04:32.375Z,13.80
2018-08-27T06:07:13.329Z,13.90
2018-08-27T06:09:58.517Z,14.00
2018-08-27T06:12:27.731Z,14.10
2018-08-27T06:15:12.277Z,14.20
2018-08-27T06:17:52.449Z,14.30
2018-08-27T06:20:32.493Z,14.30
2018-08-27T06:23:13.289Z,14.40
2018-08-27T06:25:58.337Z,14.40
2018-08-27T06:28:31.594Z,14.50
2018-08-27T06:31:12.853Z,14.50
2018-08-27T06:33:41.295Z,14.40
2018-08-27T06:36:09.816Z,14.50
2018-08-27T06:38:47.912Z,14.50
2018-08-27T06:41:28.774Z,14.50
2018-08-27T06:44:10.262Z,14.50
2018-08-27T06:46:44.995Z,14.60
2018-08-27T06:49:28.585Z,14.70
2018-08-27T06:52:07.309Z,14.80
2018-08-27T06:54:35.784Z,14.90
2018-08-27T06:57:12.141Z,15.00
2018-08-27T06:59:54.498Z,15.00
2018-08-27T07:02:31.001Z,15.10
2018-08-27T07:05:15.365Z,15.10
2018-08-27T07:07:55.480Z,15.10
2018-08-27T07:10:35.825Z,15.10
2018-08-27T07:13:10.698Z,15.10
2018-08-27T07:15:45.985Z,15.20
2018-08-27T07:18:27.218Z,15.30
2018-08-27T07:21:04.644Z,15.40
2018-08-27T07:23:33.366Z,15.50
2018-08-27T07:26:15.310Z,15.60
2018-08-27T07:28:53.060Z,15.60
2018-08-27T07:31:32.974Z,15.70
2018-08-27T07:34:12.610Z,15.60
2018-08-27T07:36:58.637Z,15.60
2018-08-27T07:39:32.996Z,15.70
2018-08-27T07:42:14.976Z,15.60
2018-08-27T07:44:56.419Z,15.70
2018-08-27T07:47:31.424Z,15.90
2018-08-27T07:50:14.048Z,15.90
2018-08-27T07:52:55.966Z,16.00
2018-08-27T07:55:34.538Z,16.00
2018-08-27T07:58:03.167Z,16.20
2018-08-27T08:00:35.243Z,16.30
2018-08-27T08:03:10.737Z,16.40
2018-08-27T08:05:43.558Z,16.50
2018-08-27T08:08:31.150Z,16.60
2018-08-27T08:11:14.478Z,16.60
2018-08-27T08:14:07.082Z,16.80
2018-08-27T08:16:35.748Z,16.90
2018-08-27T08:19:16.404Z,17.00
2018-08-27T08:21:52.296Z,17.00
2018-08-27T08:24:33.786Z,17.10
2018-08-27T08:27:02.788Z,17.10
2018-08-27T08:29:34.355Z,17.10
2018-08-27T08:32:11.342Z,17.20
2018-08-27T08:37:31.576Z,17.40
2018-08-27T08:40:13.938Z,17.50
2018-08-27T08:42:51.747Z,17.50
2018-08-27T08:48:13.714Z,17.50
2018-08-27T08:50:52.098Z,17.30
2018-08-27T08:53:32.353Z,17.20
2018-08-27T08:56:01.353Z,17.10
2018-08-27T08:58:30.123Z,17.00
2018-08-27T09:01:13.695Z,16.90
2018-08-27T09:03:54.933Z,16.80
2018-08-27T09:06:29.919Z,16.80
2018-08-27T09:09:14.106Z,16.70
2018-08-27T09:11:58.429Z,16.80
2018-08-27T09:14:32.598Z,16.80
2018-08-27T09:17:15.756Z,16.80
2018-08-27T09:19:53.995Z,16.90
2018-08-27T09:22:31.178Z,16.90
2018-08-27T09:25:15.694Z,17.10
2018-08-27T09:27:58.414Z,17.30
2018-08-27T09:30:30.839Z,17.50
2018-08-27T09:33:02.856Z,17.60
2018-08-27T09:35:36.360Z,17.70
2018-08-27T09:38:15.180Z,17.80
2018-08-27T09:40:57.444Z,17.80
2018-08-27T09:43:30.695Z,17.80
2018-08-27T09:46:11.130Z,17.80
2018-08-27T09:48:49.736Z,17.70
2018-08-27T09:51:32.561Z,17.60
2018-08-27T09:54:13.504Z,17.50
2018-08-27T09:56:52.920Z,17.40
2018-08-27T09:59:33.265Z,17.40
2018-08-27T10:02:12.506Z,17.40
2018-08-27T10:05:08.358Z,17.50
2018-08-27T10:07:38.831Z,17.40
2018-08-27T10:10:28.061Z,17.50
2018-08-27T10:13:08.917Z,17.40
2018-08-27T10:15:38.096Z,17.40
2018-08-27T10:18:13.450Z,17.40
2018-08-27T10:23:31.055Z,17.40
2018-08-27T10:26:14.382Z,17.40
2018-08-27T10:28:52.159Z,17.30
2018-08-27T10:34:03.902Z,17.40
2018-08-27T10:36:33.939Z,17.60
2018-08-27T10:39:16.575Z,17.70
2018-08-27T10:41:55.648Z,17.90
2018-08-27T10:44:32.249Z,18.10
2018-08-27T10:47:12.502Z,18.20
2018-08-27T10:49:59.690Z,18.30
2018-08-27T10:52:31.733Z,18.40
2018-08-27T10:55:14.823Z,18.50
2018-08-27T10:57:57.718Z,18.60
2018-08-27T11:00:35.354Z,18.70
2018-08-27T11:03:16.029Z,18.80
2018-08-27T11:05:59.452Z,18.90
2018-08-27T11:08:31.787Z,19.00
2018-08-27T11:11:15.207Z,19.00
2018-08-27T11:13:53.663Z,19.00
2018-08-27T11:16:34.245Z,19.20
2018-08-27T11:19:12.699Z,19.20
2018-08-27T11:21:50.281Z,19.30
2018-08-27T11:24:32.447Z,19.30
2018-08-27T11:27:14.679Z,19.30
2018-08-27T11:29:53.851Z,19.20
2018-08-27T11:32:38.981Z,19.10
2018-08-27T11:35:14.517Z,18.90
2018-08-27T11:37:59.603Z,18.90
2018-08-27T11:40:30.565Z,18.90
2018-08-27T11:43:13.508Z,18.90
2018-08-27T11:45:58.937Z,18.80
2018-08-27T11:48:32.267Z,18.70
2018-08-27T11:51:11.527Z,18.60
2018-08-27T11:53:59.932Z,18.50
2018-08-27T11:56:30.613Z,18.40
2018-08-27T11:59:11.443Z,18.20
2018-08-27T12:01:49.200Z,18.10
2018-08-27T12:04:31.420Z,18.10
2018-08-27T12:07:11.527Z,18.10
2018-08-27T12:09:53.938Z,18.20
2018-08-27T12:12:32.656Z,18.30
2018-08-27T12:15:15.986Z,18.30
2018-08-27T12:17:50.785Z,18.30
2018-08-27T12:26:01.474Z,18.30
2018-08-27T12:29:28.688Z,18.40
2018-08-27T12:31:58.658Z,18.50
2018-08-27T12:37:59.940Z,18.50
2018-08-27T12:40:38.348Z,18.50
2018-08-27T12:43:07.315Z,18.50
2018-08-27T12:45:43.484Z,18.40
2018-08-27T12:51:12.572Z,18.30
2018-08-27T12:53:52.458Z,18.20
2018-08-27T12:56:21.017Z,18.20
2018-08-27T13:01:35.171Z,18.10
2018-08-27T13:07:12.530Z,18.10
2018-08-27T13:09:59.485Z,18.10
2018-08-27T13:12:28.674Z,18.20
2018-08-27T13:14:58.269Z,18.30
2018-08-27T13:17:34.154Z,18.40
2018-08-27T13:20:13.237Z,18.40
2018-08-27T13:22:54.705Z,18.50
2018-08-27T13:28:10.154Z,18.40
2018-08-27T13:30:46.197Z,18.40
2018-08-27T13:37:21.760Z,18.30
2018-08-27T13:40:10.834Z,18.20
2018-08-27T13:43:06.573Z,18.10
2018-08-27T13:49:15.720Z,18.00
2018-08-27T13:55:33.506Z,17.90
2018-08-27T14:01:29.659Z,17.80
2018-08-27T14:04:41.774Z,17.80
2018-08-27T14:27:43.285Z,18.30
2018-08-27T14:30:11.989Z,18.40
2018-08-27T14:32:59.784Z,18.40
2018-08-27T14:38:32.498Z,18.30
2018-08-27T14:44:06.446Z,18.20
2018-08-27T14:46:34.775Z,18.20
2018-08-27T14:49:13.723Z,18.20
2018-08-27T14:51:58.920Z,18.20
2018-08-27T14:58:00.422Z,18.40
2018-08-27T15:00:35.148Z,18.50
2018-08-27T15:03:17.858Z,18.50
2018-08-27T15:05:55.978Z,18.60
2018-08-27T15:08:32.848Z,18.60
2018-08-27T15:11:16.610Z,18.70
2018-08-27T15:14:26.348Z,18.70
2018-08-27T15:16:55.392Z,18.70
2018-08-27T15:19:33.528Z,18.80
2018-08-27T15:25:15.679Z,18.70
2018-08-27T15:27:43.993Z,18.70
2018-08-27T15:32:55.621Z,18.90
2018-08-27T15:35:35.919Z,19.10
2018-08-27T15:38:17.612Z,19.30
2018-08-27T15:40:56.676Z,19.40
2018-08-27T15:43:34.157Z,19.60
2018-08-27T15:49:11.366Z,19.70
2018-08-27T15:51:55.448Z,19.60
2018-08-27T15:54:32.088Z,19.50
2018-08-27T15:57:15.492Z,19.40
2018-08-27T15:59:53.298Z,19.30
2018-08-27T16:02:32.352Z,19.20
2018-08-27T16:05:17.539Z,19.20
2018-08-27T16:10:33.664Z,19.10
2018-08-27T16:13:03.813Z,19.10
2018-08-27T16:15:37.158Z,19.10
2018-08-27T16:18:15.219Z,19.10
2018-08-27T16:20:52.045Z,19.10
2018-08-27T16:23:34.709Z,19.00
2018-08-27T16:26:03.800Z,19.00
2018-08-27T16:28:33.556Z,19.00
2018-08-27T16:31:14.693Z,18.90
2018-08-27T16:33:46.111Z,18.80
2018-08-27T16:36:14.846Z,18.80
2018-08-27T16:38:57.424Z,18.80
2018-08-27T16:41:36.929Z,18.70
2018-08-27T16:44:20.700Z,18.70
2018-08-27T16:47:08.264Z,18.70
2018-08-27T16:49:36.779Z,18.60
2018-08-27T16:52:18.030Z,18.60
2018-08-27T16:54:59.124Z,18.50
2018-08-27T16:57:31.455Z,18.50
2018-08-27T17:00:16.138Z,18.50
2018-08-27T17:03:00.583Z,18.50
2018-08-27T17:05:32.919Z,18.40
2018-08-27T17:08:02.328Z,18.40
2018-08-27T17:10:34.940Z,18.40
2018-08-27T17:13:05.428Z,18.40
2018-08-27T17:15:43.205Z,18.40
2018-08-27T17:18:29.553Z,18.40
2018-08-27T17:21:14.299Z,18.30
2018-08-27T17:23:58.258Z,18.30
2018-08-27T17:26:43.433Z,18.30
2018-08-27T17:32:11.787Z,18.20
2018-08-27T17:34:50.071Z,18.20
2018-08-27T17:37:31.216Z,18.20
2018-08-27T17:43:12.369Z,18.20
2018-08-27T17:53:01.391Z,18.20
2018-08-27T17:55:37.389Z,18.10
2018-08-27T17:58:06.522Z,18.10
2018-08-27T18:00:34.837Z,18.10
2018-08-27T18:13:14.940Z,18.00
2018-08-27T18:18:35.467Z,17.90
2018-08-27T18:21:20.932Z,17.80
2018-08-27T18:24:09.910Z,17.70
2018-08-27T18:26:43.254Z,17.70
2018-08-27T18:29:22.941Z,17.60
2018-08-27T18:31:51.788Z,17.60
2018-08-27T18:34:20.188Z,17.50
2018-08-27T18:36:48.635Z,17.60
2018-08-27T18:39:29.554Z,17.60
2018-08-27T18:42:03.489Z,17.50
2018-08-27T18:44:33.995Z,17.50
2018-08-27T18:47:03.049Z,17.50
2018-08-27T18:49:36.336Z,17.60
2018-08-27T18:52:57.799Z,17.60
2018-08-27T18:55:38.017Z,17.50
2018-08-27T18:58:06.505Z,17.50
2018-08-27T19:00:36.570Z,17.50
2018-08-27T19:03:13.268Z,17.50
2018-08-27T19:06:01.338Z,17.60
2018-08-27T19:08:34.360Z,17.50
2018-08-27T19:11:18.489Z,17.50
2018-08-27T19:13:47.029Z,17.50
2018-08-27T19:16:15.410Z,17.50
2018-08-27T19:18:53.650Z,17.40
2018-08-27T19:21:44.038Z,17.40
2018-08-27T19:24:12.830Z,17.30
2018-08-27T19:26:58.012Z,17.30
2018-08-27T19:29:33.449Z,17.20
2018-08-27T19:32:13.377Z,17.10
2018-08-27T19:34:54.645Z,17.00
2018-08-27T19:37:39.136Z,17.00
2018-08-27T19:40:12.130Z,16.90
2018-08-27T19:42:50.854Z,16.80
2018-08-27T19:45:39.986Z,16.70
2018-08-27T19:48:16.869Z,16.70
2018-08-27T19:50:45.424Z,16.70
2018-08-27T19:53:13.954Z,16.60
2018-08-27T19:55:54.598Z,16.60
2018-08-27T19:58:37.098Z,16.50
2018-08-27T20:04:10.384Z,16.50
2018-08-27T20:06:43.042Z,16.40
2018-08-27T20:12:15.802Z,16.30
2018-08-27T20:14:59.261Z,16.30
2018-08-27T20:17:34.972Z,16.20
2018-08-27T20:20:23.605Z,16.20
2018-08-27T20:23:14.460Z,16.10
2018-08-27T20:26:24.351Z,16.10
2018-08-27T20:29:10.682Z,16.10
2018-08-27T20:31:45.345Z,16.00
2018-08-27T20:34:14.118Z,16.00
2018-08-27T20:36:58.505Z,15.90
2018-08-27T20:39:32.897Z,15.90
2018-08-27T20:45:48.784Z,15.80
2018-08-27T20:48:53.031Z,15.70
2018-08-27T20:51:39.629Z,15.70
2018-08-27T20:57:50.817Z,15.50
2018-08-27T21:00:58.919Z,15.60
2018-08-27T21:13:37.726Z,15.40
2018-08-27T21:19:47.967Z,15.20
2018-08-27T21:23:06.696Z,15.20
2018-08-27T21:29:17.499Z,15.10
2018-08-27T21:56:57.206Z,14.80
2018-08-27T22:03:10.996Z,14.70
2018-08-27T22:06:12.323Z,14.60
2018-08-27T22:09:25.344Z,14.60
2018-08-27T22:12:27.998Z,14.50
2018-08-27T22:21:18.364Z,14.40
2018-08-27T22:24:09.308Z,14.40
2018-08-27T22:37:16.496Z,14.20
2018-08-27T22:43:30.950Z,14.20
2018-08-27T22:46:44.359Z,14.20
2018-08-27T22:49:51.181Z,14.10
2018-08-27T22:52:57.178Z,14.10
2018-08-27T23:05:52.378Z,13.80
2018-08-27T23:15:07.922Z,13.70
2018-08-27T23:18:11.850Z,13.70
2018-08-27T23:27:18.214Z,13.50
2018-08-27T23:37:17.083Z,13.40
2018-08-27T23:43:12.609Z,13.30
2018-08-27T23:46:16.242Z,13.30
2018-08-27T23:49:29.489Z,13.30
2018-08-27T23:55:43.680Z,13.30
2018-08-27T23:58:57.778Z,13.20
